Time;durP1;ratioP1;P1;durP2;ratioP2;P2;SDS_P1;SDS_P2;PMS_P1;PMS_P2;Temp;Humidity;BMP_temperature;BMP_pressure;BME280_temperature;BME280_humidity;BME280_pressure;Samples;Min_cycle;Max_cycle;Signal;HPM_P1;HPM_P2
2023/07/06 00:00:51;;;;;;;8.93;3.60;;;13.30;99.90;;;;;;5067924;28;20033;-74
2023/07/06 00:03:16;;;;;;;8.80;4.10;;;13.30;99.90;;;;;;5073459;28;20382;-73
2023/07/06 00:05:44;;;;;;;7.68;3.90;;;13.30;99.90;;;;;;5056728;28;20051;-74
2023/07/06 00:08:14;;;;;;;8.63;3.92;;;13.30;99.90;;;;;;5055635;28;20044;-73
2023/07/06 00:10:42;;;;;;;8.30;3.78;;;13.30;99.90;;;;;;5059798;28;20538;-74
2023/07/06 00:13:08;;;;;;;8.10;3.95;;;13.20;99.90;;;;;;5043318;28;20043;-74
2023/07/06 00:15:34;;;;;;;7.95;4.10;;;13.20;99.90;;;;;;5059523;28;20041;-74
2023/07/06 00:18:03;;;;;;;7.20;3.85;;;13.20;99.90;;;;;;5070456;28;20115;-74
2023/07/06 00:20:35;;;;;;;9.13;4.13;;;13.20;99.90;;;;;;5067535;28;20036;-73
2023/07/06 00:23:01;;;;;;;9.15;4.40;;;13.20;99.90;;;;;;5074144;28;20052;-73
2023/07/06 00:25:27;;;;;;;9.13;5.15;;;13.20;99.90;;;;;;5089685;28;20044;-73
2023/07/06 00:28:00;;;;;;;7.40;4.28;;;13.10;99.90;;;;;;5067000;28;20076;-73
2023/07/06 00:30:53;;;;;;;9.50;4.53;;;13.10;99.90;;;;;;5054030;28;20508;-73
2023/07/06 00:33:20;;;;;;;9.25;5.00;;;13.20;99.90;;;;;;5054042;28;20451;-73
2023/07/06 00:35:46;;;;;;;10.13;4.95;;;13.10;99.90;;;;;;5070316;28;20481;-74
2023/07/06 00:38:19;;;;;;;9.23;5.00;;;13.00;99.90;;;;;;5064866;28;20489;-73
2023/07/06 00:40:47;;;;;;;9.60;4.40;;;13.10;99.90;;;;;;5044031;28;20080;-74
2023/07/06 00:43:22;;;;;;;11.40;4.70;;;13.10;99.90;;;;;;5055335;28;20076;-74
2023/07/06 00:45:52;;;;;;;11.02;4.88;;;13.10;99.90;;;;;;5057416;28;20045;-73
2023/07/06 00:48:26;;;;;;;9.25;5.03;;;13.10;99.90;;;;;;5053701;28;20045;-73
2023/07/06 00:50:56;;;;;;;10.88;5.55;;;13.00;99.90;;;;;;5053659;28;20127;-74
2023/07/06 00:53:27;;;;;;;8.43;4.50;;;13.10;99.90;;;;;;5054405;28;20076;-73
2023/07/06 00:55:57;;;;;;;9.38;4.63;;;13.10;99.90;;;;;;5057481;28;20489;-73
2023/07/06 00:58:34;;;;;;;9.23;5.20;;;13.10;99.90;;;;;;5057196;28;20098;-73
2023/07/06 01:01:03;;;;;;;9.48;5.05;;;13.10;99.90;;;;;;5047899;28;20036;-73
2023/07/06 01:03:30;;;;;;;9.55;4.82;;;13.00;99.90;;;;;;5071668;28;20075;-73
2023/07/06 01:06:01;;;;;;;9.10;5.47;;;13.00;99.90;;;;;;5053298;28;20047;-74
2023/07/06 01:08:27;;;;;;;9.68;5.35;;;13.00;99.90;;;;;;5053305;28;20044;-74
2023/07/06 01:10:54;;;;;;;10.27;5.35;;;13.00;99.90;;;;;;5070449;28;20040;-74
2023/07/06 01:13:23;;;;;;;10.25;5.38;;;13.00;99.90;;;;;;5070431;28;20120;-74
2023/07/06 01:16:04;;;;;;;9.63;5.50;;;13.10;99.90;;;;;;5056394;28;20036;-74
2023/07/06 01:18:49;;;;;;;11.18;5.53;;;13.10;99.90;;;;;;5068585;28;20112;-74
2023/07/06 01:21:36;;;;;;;10.13;6.13;;;13.00;99.90;;;;;;5054557;28;20068;-74
2023/07/06 01:24:31;;;;;;;9.00;5.15;;;13.10;99.90;;;;;;5040230;28;20041;-74
2023/07/06 01:27:14;;;;;;;11.00;5.32;;;13.00;99.90;;;;;;5052442;28;20048;-74
2023/07/06 01:29:48;;;;;;;10.82;5.68;;;13.00;99.90;;;;;;5053205;28;20056;-74
2023/07/06 01:32:23;;;;;;;8.85;5.55;;;13.10;99.90;;;;;;5056297;28;20032;-74
2023/07/06 01:35:04;;;;;;;10.60;5.72;;;13.00;99.90;;;;;;5060463;28;20083;-74
2023/07/06 01:37:35;;;;;;;12.45;5.85;;;13.10;99.90;;;;;;5069895;28;20392;-74
2023/07/06 01:40:04;;;;;;;11.73;5.63;;;13.10;99.90;;;;;;5056860;28;20388;-74
2023/07/06 01:42:31;;;;;;;12.07;6.18;;;13.00;99.90;;;;;;5054088;28;20041;-74
2023/07/06 01:45:02;;;;;;;10.35;5.78;;;13.00;99.90;;;;;;5055852;28;20040;-75
2023/07/06 01:47:29;;;;;;;10.73;6.75;;;13.00;99.90;;;;;;5070354;28;20090;-74
2023/07/06 01:49:56;;;;;;;11.48;6.15;;;13.00;99.90;;;;;;5072022;28;20048;-74
2023/07/06 01:52:57;;;;;;;9.18;6.05;;;13.00;99.90;;;;;;5053659;28;20484;-74
2023/07/06 01:55:53;;;;;;;11.25;5.72;;;13.00;99.90;;;;;;5055935;28;20032;-74
2023/07/06 01:58:33;;;;;;;11.02;5.70;;;13.00;99.90;;;;;;5053748;28;20044;-74
2023/07/06 02:01:04;;;;;;;10.38;5.97;;;13.00;99.90;;;;;;5073714;28;20032;-74
2023/07/06 02:03:30;;;;;;;10.98;6.22;;;13.00;99.90;;;;;;5053642;28;20081;-74
2023/07/06 02:05:56;;;;;;;11.73;6.07;;;13.00;99.90;;;;;;5070841;28;20500;-74
2023/07/06 02:08:23;;;;;;;11.10;6.05;;;13.00;99.90;;;;;;5071031;28;20420;-74
2023/07/06 02:10:50;;;;;;;10.30;6.15;;;13.00;99.90;;;;;;5055416;28;20127;-75
2023/07/06 02:13:16;;;;;;;10.38;6.25;;;13.00;99.90;;;;;;5052013;28;20040;-74
2023/07/06 02:15:43;;;;;;;10.57;5.90;;;13.00;99.90;;;;;;5072217;28;20044;-75
2023/07/06 02:18:08;;;;;;;8.85;5.60;;;13.00;99.90;;;;;;5069137;28;20039;-74
2023/07/06 02:20:34;;;;;;;11.05;6.15;;;13.00;99.90;;;;;;5072360;28;20040;-75
2023/07/06 02:23:00;;;;;;;11.18;5.65;;;13.00;99.90;;;;;;5053207;28;20036;-75
2023/07/06 02:25:26;;;;;;;9.52;5.57;;;13.10;99.90;;;;;;5071961;28;20492;-74
2023/07/06 02:27:52;;;;;;;8.95;5.45;;;13.10;99.90;;;;;;5068429;28;20060;-74
2023/07/06 02:30:17;;;;;;;8.88;5.10;;;13.10;99.90;;;;;;5069651;28;20067;-74
2023/07/06 02:32:43;;;;;;;8.88;5.28;;;13.10;99.90;;;;;;5073165;28;20047;-75
2023/07/06 02:35:10;;;;;;;10.05;5.55;;;13.10;99.90;;;;;;5054199;28;20166;-74
2023/07/06 02:37:38;;;;;;;12.13;6.00;;;13.10;99.90;;;;;;5055081;28;20477;-75
2023/07/06 02:40:10;;;;;;;11.18;5.72;;;13.10;99.90;;;;;;5071821;28;20594;-75
2023/07/06 02:42:36;;;;;;;10.80;5.43;;;13.10;99.90;;;;;;5072668;28;20032;-74
2023/07/06 02:45:04;;;;;;;10.13;5.22;;;13.10;99.90;;;;;;5051916;28;20485;-74
2023/07/06 02:47:29;;;;;;;11.48;5.68;;;13.00;99.90;;;;;;5054033;28;20045;-73
2023/07/06 02:49:55;;;;;;;8.07;5.13;;;13.00;99.90;;;;;;5052803;28;20507;-74
2023/07/06 02:52:20;;;;;;;11.75;5.45;;;13.00;99.90;;;;;;5071630;28;20520;-74
2023/07/06 02:54:47;;;;;;;10.73;5.45;;;13.00;99.90;;;;;;5053717;28;20449;-74
2023/07/06 02:57:12;;;;;;;11.00;5.15;;;13.00;99.90;;;;;;5073096;28;20093;-74
2023/07/06 02:59:38;;;;;;;8.90;5.22;;;13.00;99.90;;;;;;5063532;28;20033;-74
2023/07/06 03:02:04;;;;;;;8.07;5.07;;;13.00;99.90;;;;;;5071146;28;20040;-74
2023/07/06 03:04:31;;;;;;;9.52;4.72;;;13.00;99.90;;;;;;5071145;28;20076;-74
2023/07/06 03:06:57;;;;;;;10.27;5.68;;;13.00;99.90;;;;;;5072729;28;20044;-74
2023/07/06 03:09:29;;;;;;;8.50;4.97;;;13.00;99.90;;;;;;5052692;28;20036;-75
2023/07/06 03:11:55;;;;;;;9.73;4.95;;;13.00;99.90;;;;;;5051564;28;20080;-74
2023/07/06 03:14:25;;;;;;;9.50;5.60;;;13.00;99.90;;;;;;5067666;28;20083;-74
2023/07/06 03:16:53;;;;;;;9.65;5.25;;;12.90;99.90;;;;;;5054672;28;20041;-74
2023/07/06 03:19:19;;;;;;;10.82;5.47;;;12.90;99.90;;;;;;5068360;28;20032;-74
2023/07/06 03:21:46;;;;;;;9.88;4.95;;;12.90;99.90;;;;;;5071503;28;20039;-74
2023/07/06 03:24:12;;;;;;;9.55;5.07;;;12.90;99.90;;;;;;5069482;28;20048;-74
2023/07/06 03:26:40;;;;;;;10.20;4.78;;;12.90;99.90;;;;;;5054808;28;20037;-74
2023/07/06 03:29:08;;;;;;;8.27;5.20;;;12.90;99.90;;;;;;5068034;28;20075;-74
2023/07/06 03:31:35;;;;;;;9.68;5.55;;;12.80;99.90;;;;;;5065881;28;20045;-74
2023/07/06 03:34:02;;;;;;;9.65;5.85;;;12.80;99.90;;;;;;5051781;28;20075;-74
2023/07/06 03:36:28;;;;;;;11.75;5.47;;;12.80;99.90;;;;;;5053537;28;20041;-74
2023/07/06 03:38:53;;;;;;;12.15;5.80;;;12.80;99.90;;;;;;5072121;28;20404;-74
2023/07/06 03:41:19;;;;;;;10.57;5.95;;;12.80;99.90;;;;;;5075014;28;20044;-74
2023/07/06 03:43:46;;;;;;;9.57;5.57;;;12.80;99.90;;;;;;5055377;28;20049;-74
2023/07/06 03:46:12;;;;;;;11.73;6.13;;;12.80;99.90;;;;;;5058249;28;20044;-73
2023/07/06 03:48:46;;;;;;;12.02;6.28;;;12.80;99.90;;;;;;5056767;28;20044;-74
2023/07/06 03:51:13;;;;;;;11.35;6.40;;;12.90;99.90;;;;;;5084302;28;20076;-74
2023/07/06 03:53:38;;;;;;;10.48;5.95;;;12.90;99.90;;;;;;5056999;28;20067;-74
2023/07/06 03:56:06;;;;;;;10.25;6.38;;;12.90;99.90;;;;;;5074845;28;20126;-74
2023/07/06 03:58:33;;;;;;;10.48;5.53;;;12.90;99.90;;;;;;5055708;28;20068;-74
2023/07/06 04:00:58;;;;;;;10.35;6.07;;;13.00;99.90;;;;;;5073845;28;20044;-74
2023/07/06 04:03:27;;;;;;;9.55;6.00;;;13.00;99.90;;;;;;5056504;28;20085;-74
2023/07/06 04:05:54;;;;;;;9.98;5.95;;;13.00;99.90;;;;;;5074478;28;20051;-74
2023/07/06 04:08:21;;;;;;;11.02;6.20;;;12.90;99.90;;;;;;5057654;28;20044;-74
2023/07/06 04:10:48;;;;;;;13.40;6.45;;;12.90;99.90;;;;;;5074699;28;20044;-74
2023/07/06 04:13:14;;;;;;;8.93;5.75;;;12.90;99.90;;;;;;5073169;28;20048;-74
2023/07/06 04:15:44;;;;;;;11.90;6.55;;;13.00;99.90;;;;;;5075515;28;20048;-74
2023/07/06 04:18:10;;;;;;;9.90;6.20;;;13.00;99.90;;;;;;5055966;28;20050;-74
2023/07/06 04:20:36;;;;;;;11.50;6.22;;;13.00;99.90;;;;;;5074198;28;20075;-74
2023/07/06 04:23:02;;;;;;;9.45;6.07;;;13.00;99.90;;;;;;5055009;28;20075;-74
2023/07/06 04:25:29;;;;;;;10.77;6.22;;;13.10;99.90;;;;;;5073568;28;20048;-74
2023/07/06 04:28:02;;;;;;;10.85;5.95;;;13.10;99.90;;;;;;5073747;28;20098;-74
2023/07/06 04:30:29;;;;;;;9.40;5.88;;;13.10;99.90;;;;;;5071829;28;20032;-74
2023/07/06 04:32:54;;;;;;;10.65;6.22;;;13.10;99.90;;;;;;5070423;28;20550;-74
2023/07/06 04:35:22;;;;;;;10.95;6.28;;;13.10;99.90;;;;;;5050977;28;20094;-74
2023/07/06 04:37:49;;;;;;;12.10;6.35;;;13.10;99.90;;;;;;5068473;28;20511;-74
2023/07/06 04:40:20;;;;;;;10.20;6.32;;;13.10;99.90;;;;;;5074191;28;20059;-74
2023/07/06 04:42:48;;;;;;;8.90;5.43;;;13.10;99.90;;;;;;5053756;28;20125;-74
2023/07/06 04:45:14;;;;;;;11.27;7.00;;;13.10;99.90;;;;;;5070771;28;20052;-74
2023/07/06 04:47:40;;;;;;;12.70;6.28;;;13.20;99.90;;;;;;5051182;28;20033;-74
2023/07/06 04:50:11;;;;;;;11.73;6.03;;;13.20;99.90;;;;;;5072488;28;20431;-74
2023/07/06 04:52:38;;;;;;;10.95;6.55;;;13.30;99.90;;;;;;5072718;28;20032;-74
2023/07/06 04:55:10;;;;;;;15.35;7.13;;;13.30;99.90;;;;;;5073740;28;20396;-74
2023/07/06 04:57:37;;;;;;;10.07;6.50;;;13.30;99.90;;;;;;5054983;28;20036;-74
2023/07/06 05:00:18;;;;;;;10.77;7.13;;;13.30;99.90;;;;;;5073539;28;20032;-74
2023/07/06 05:02:46;;;;;;;12.30;6.75;;;13.40;99.90;;;;;;5071803;28;20520;-74
2023/07/06 05:05:12;;;;;;;10.82;6.63;;;13.40;99.90;;;;;;5057009;28;20075;-74
2023/07/06 05:07:39;;;;;;;13.07;6.70;;;13.40;99.90;;;;;;5051930;28;20393;-74
2023/07/06 05:10:06;;;;;;;11.85;6.88;;;13.40;99.90;;;;;;5056649;28;20043;-74
2023/07/06 05:12:32;;;;;;;11.10;7.00;;;13.40;99.90;;;;;;5070187;28;20033;-73
2023/07/06 05:14:57;;;;;;;12.98;7.53;;;13.40;99.90;;;;;;5057094;28;20507;-74
2023/07/06 05:17:24;;;;;;;15.88;7.57;;;13.50;99.90;;;;;;5054289;28;20040;-73
2023/07/06 05:19:50;;;;;;;15.60;7.25;;;13.50;99.90;;;;;;5055227;28;20047;-73
2023/07/06 05:22:18;;;;;;;12.85;7.53;;;13.60;99.90;;;;;;5074321;28;20036;-73
2023/07/06 05:24:44;;;;;;;14.45;6.75;;;13.60;99.90;;;;;;5055691;28;20032;-73
2023/07/06 05:27:10;;;;;;;11.10;7.05;;;13.70;99.90;;;;;;5074225;28;20037;-73
2023/07/06 05:29:36;;;;;;;15.15;6.90;;;13.80;99.90;;;;;;5055334;28;20514;-74
2023/07/06 05:32:01;;;;;;;11.57;6.82;;;13.80;99.90;;;;;;5062226;28;20040;-74
2023/07/06 05:34:27;;;;;;;13.88;7.25;;;13.90;99.90;;;;;;5055572;28;20048;-74
2023/07/06 05:36:53;;;;;;;12.65;7.13;;;13.90;99.90;;;;;;5055348;28;20066;-73
2023/07/06 05:39:18;;;;;;;13.63;7.13;;;14.10;99.90;;;;;;5071500;28;20384;-74
2023/07/06 05:41:44;;;;;;;16.65;7.38;;;14.10;99.90;;;;;;5072856;28;20231;-73
2023/07/06 05:44:09;;;;;;;18.17;7.30;;;14.20;99.90;;;;;;5071806;28;20123;-74
2023/07/06 05:46:35;;;;;;;14.90;6.95;;;14.20;99.90;;;;;;5070110;28;20495;-74
2023/07/06 05:49:01;;;;;;;13.60;7.50;;;14.30;99.90;;;;;;5065013;28;20043;-73
2023/07/06 05:51:26;;;;;;;12.70;7.05;;;14.40;99.90;;;;;;5062295;28;20045;-74
2023/07/06 05:53:52;;;;;;;13.90;7.47;;;14.50;99.90;;;;;;5058673;28;20815;-74
2023/07/06 05:56:18;;;;;;;12.30;7.90;;;14.50;99.90;;;;;;5066024;28;20075;-74
2023/07/06 05:58:44;;;;;;;14.70;7.55;;;14.60;99.90;;;;;;5072705;28;20111;-74
2023/07/06 06:01:11;;;;;;;15.35;7.40;;;14.70;99.90;;;;;;5063478;28;20039;-74
2023/07/06 06:03:37;;;;;;;15.10;7.50;;;14.80;99.90;;;;;;5059201;28;20218;-74
2023/07/06 06:06:03;;;;;;;13.30;7.35;;;14.90;99.90;;;;;;5039927;28;20045;-74
2023/07/06 06:08:29;;;;;;;13.65;7.68;;;15.00;99.90;;;;;;5072498;28;20127;-74
2023/07/06 06:10:55;;;;;;;15.73;7.43;;;15.10;99.90;;;;;;5056524;28;20047;-74
2023/07/06 06:13:21;;;;;;;14.48;7.32;;;15.20;99.90;;;;;;5066333;28;20037;-74
2023/07/06 06:15:48;;;;;;;16.65;7.38;;;15.30;99.90;;;;;;5050396;28;20068;-74
2023/07/06 06:18:14;;;;;;;16.38;7.70;;;15.40;99.90;;;;;;5055257;28;20037;-74
2023/07/06 06:20:42;;;;;;;15.80;7.35;;;15.40;99.90;;;;;;5046073;28;20401;-74
2023/07/06 06:23:10;;;;;;;16.25;7.47;;;15.50;99.90;;;;;;5056062;28;20366;-74
2023/07/06 06:25:38;;;;;;;18.98;7.28;;;15.60;99.90;;;;;;5068796;28;20123;-74
2023/07/06 06:28:04;;;;;;;14.00;7.05;;;15.70;99.90;;;;;;5070352;28;20048;-74
2023/07/06 06:30:30;;;;;;;16.05;7.25;;;15.80;99.90;;;;;;5054631;28;20041;-74
2023/07/06 06:32:57;;;;;;;19.48;7.15;;;15.90;99.90;;;;;;5041598;28;20053;-74
2023/07/06 06:35:28;;;;;;;15.60;7.78;;;15.90;99.90;;;;;;5051489;28;20036;-74
2023/07/06 06:37:57;;;;;;;14.60;6.88;;;16.10;99.90;;;;;;5050428;28;20041;-74
2023/07/06 06:40:24;;;;;;;15.02;6.90;;;16.20;99.90;;;;;;5056356;28;20036;-74
2023/07/06 06:42:50;;;;;;;15.10;7.05;;;16.30;99.90;;;;;;5064728;28;20420;-82
2023/07/06 06:45:17;;;;;;;15.80;7.38;;;16.30;99.90;;;;;;5066902;28;20041;-83
2023/07/06 06:47:42;;;;;;;13.80;6.80;;;16.40;99.90;;;;;;5053918;28;20036;-83
2023/07/06 06:50:09;;;;;;;17.02;7.15;;;16.50;99.90;;;;;;5057054;28;20403;-82
2023/07/06 06:52:37;;;;;;;14.10;7.40;;;16.60;99.90;;;;;;5068114;28;20477;-82
2023/07/06 06:55:03;;;;;;;15.30;6.88;;;16.70;99.90;;;;;;5070911;28;20040;-82
2023/07/06 06:57:30;;;;;;;13.93;6.85;;;16.80;99.90;;;;;;5071530;28;20094;-82
2023/07/06 06:59:56;;;;;;;14.20;6.93;;;16.80;99.90;;;;;;5073997;28;20049;-82
2023/07/06 07:02:22;;;;;;;17.90;7.20;;;16.90;99.90;;;;;;5073024;28;20029;-83
2023/07/06 07:04:49;;;;;;;16.58;7.38;;;17.00;99.90;;;;;;5054037;28;20124;-83
2023/07/06 07:07:16;;;;;;;16.33;7.57;;;17.10;99.90;;;;;;5053770;28;20052;-79
2023/07/06 07:09:41;;;;;;;16.73;6.88;;;17.20;99.90;;;;;;5050482;28;20056;-74
2023/07/06 07:12:07;;;;;;;13.98;6.85;;;17.30;99.90;;;;;;5049397;28;20477;-74
2023/07/06 07:14:33;;;;;;;13.57;6.38;;;17.30;99.90;;;;;;5056061;28;20037;-73
2023/07/06 07:16:58;;;;;;;15.70;6.80;;;17.40;99.90;;;;;;5064870;28;20056;-73
2023/07/06 07:19:24;;;;;;;15.70;6.70;;;17.40;99.90;;;;;;5067017;28;20778;-73
2023/07/06 07:21:50;;;;;;;15.35;6.60;;;17.40;99.90;;;;;;5040657;28;20040;-73
2023/07/06 07:24:16;;;;;;;15.02;6.07;;;17.50;99.90;;;;;;5062509;28;20059;-73
2023/07/06 07:26:48;;;;;;;12.43;5.50;;;17.60;99.90;;;;;;5073794;28;20044;-74
2023/07/06 07:29:14;;;;;;;12.60;5.70;;;17.60;99.90;;;;;;5074198;28;20053;-73
2023/07/06 07:31:41;;;;;;;13.88;5.45;;;17.70;99.90;;;;;;5063094;28;20045;-73
2023/07/06 07:34:07;;;;;;;11.85;5.35;;;17.80;99.90;;;;;;5054297;28;20112;-73
2023/07/06 07:36:33;;;;;;;13.65;5.78;;;17.80;99.90;;;;;;5064877;28;20170;-73
2023/07/06 07:38:59;;;;;;;15.38;5.40;;;17.90;99.90;;;;;;5057649;28;20032;-73
2023/07/06 07:41:25;;;;;;;14.15;5.28;;;17.90;99.90;;;;;;5068092;28;20037;-73
2023/07/06 07:43:51;;;;;;;11.95;5.25;;;17.90;99.90;;;;;;5069500;28;20543;-73
2023/07/06 07:46:19;;;;;;;12.48;4.72;;;17.90;99.90;;;;;;5072238;28;20041;-73
2023/07/06 07:48:46;;;;;;;12.13;4.22;;;18.10;99.90;;;;;;5063600;28;20044;-73
2023/07/06 07:51:19;;;;;;;9.40;3.60;;;18.20;99.90;;;;;;5070589;28;20036;-73
2023/07/06 07:53:45;;;;;;;9.85;3.88;;;18.20;99.90;;;;;;5061491;28;20140;-73
2023/07/06 07:56:15;;;;;;;9.52;3.58;;;18.20;99.90;;;;;;5056372;28;20115;-73
2023/07/06 07:58:41;;;;;;;8.52;3.80;;;18.40;99.90;;;;;;5073247;28;20044;-74
2023/07/06 08:01:13;;;;;;;12.02;4.85;;;18.50;99.90;;;;;;5071686;28;20481;-73
2023/07/06 08:03:38;;;;;;;12.00;4.20;;;18.50;99.90;;;;;;5072391;28;20028;-73
2023/07/06 08:06:07;;;;;;;9.80;3.50;;;18.60;99.90;;;;;;5067593;28;20500;-73
2023/07/06 08:08:35;;;;;;;13.52;4.03;;;18.80;99.90;;;;;;5037627;28;20048;-74
2023/07/06 08:11:25;;;;;;;8.30;3.63;;;18.80;99.90;;;;;;5047051;28;20036;-73
2023/07/06 08:13:53;;;;;;;11.38;3.65;;;18.80;99.90;;;;;;5072453;28;20048;-73
2023/07/06 08:16:20;;;;;;;12.32;3.50;;;18.80;99.90;;;;;;5072149;28;20032;-73
2023/07/06 08:18:46;;;;;;;9.73;2.80;;;18.60;99.90;;;;;;5072236;28;20055;-73
2023/07/06 08:21:13;;;;;;;9.60;3.08;;;18.60;99.90;;;;;;5066486;28;20039;-74
2023/07/06 08:23:45;;;;;;;10.05;2.95;;;18.70;99.90;;;;;;5071457;28;20041;-73
2023/07/06 08:26:10;;;;;;;9.57;2.67;;;18.90;99.90;;;;;;5065327;28;20028;-73
2023/07/06 08:28:36;;;;;;;11.98;2.60;;;19.00;99.90;;;;;;5055552;28;20535;-73
2023/07/06 08:31:03;;;;;;;8.18;2.47;;;19.10;99.90;;;;;;5055711;28;20468;-73
2023/07/06 08:33:35;;;;;;;12.07;3.13;;;19.20;99.90;;;;;;5065544;28;20112;-73
2023/07/06 08:36:03;;;;;;;;;;;19.20;99.90;;;;;;5056930;28;20036;-73
2023/07/06 08:38:31;;;;;;;8.85;2.63;;;19.30;99.90;;;;;;5065575;28;19917;-73
2023/07/06 08:40:57;;;;;;;5.97;2.60;;;19.10;99.90;;;;;;5061583;28;20044;-73
2023/07/06 08:43:25;;;;;;;6.68;2.40;;;19.10;99.90;;;;;;5037735;28;20082;-73
2023/07/06 08:46:00;;;;;;;8.45;2.60;;;19.00;99.90;;;;;;5066888;28;20051;-73
2023/07/06 08:48:30;;;;;;;8.13;2.30;;;19.00;99.90;;;;;;5073305;28;20041;-74
2023/07/06 08:51:03;;;;;;;6.38;2.08;;;19.10;99.90;;;;;;5055098;28;20551;-74
2023/07/06 08:53:32;;;;;;;7.75;2.10;;;19.30;99.90;;;;;;5054828;28;20765;-74
2023/07/06 08:56:01;;;;;;;6.97;2.63;;;19.40;99.90;;;;;;5062121;28;20033;-74
2023/07/06 08:58:29;;;;;;;6.80;2.30;;;19.40;99.90;;;;;;5053459;28;20037;-74
2023/07/06 09:01:12;;;;;;;11.05;2.90;;;19.30;99.90;;;;;;5053162;28;20109;-74
2023/07/06 09:04:06;;;;;;;6.68;3.03;;;19.20;99.90;;;;;;5057338;28;20117;-74
2023/07/06 09:06:32;;;;;;;7.18;2.30;;;19.20;99.90;;;;;;5047257;28;20512;-74
2023/07/06 09:09:02;;;;;;;8.27;2.47;;;19.10;99.90;;;;;;5039159;28;20460;-74
2023/07/06 09:11:33;;;;;;;6.82;2.58;;;19.00;99.90;;;;;;5073361;28;20393;-74
2023/07/06 09:14:05;;;;;;;6.15;2.50;;;19.00;99.90;;;;;;5071564;28;20032;-74
2023/07/06 09:16:34;;;;;;;8.95;2.42;;;19.10;99.90;;;;;;5089556;28;20047;-74
2023/07/06 09:19:08;;;;;;;5.32;2.08;;;19.00;99.90;;;;;;5071853;28;20085;-74
2023/07/06 09:21:34;;;;;;;8.90;2.88;;;19.10;99.90;;;;;;5069320;28;20032;-74
2023/07/06 09:24:00;;;;;;;9.02;2.80;;;19.10;99.90;;;;;;5063000;28;20507;-75
2023/07/06 09:26:33;;;;;;;6.53;3.13;;;19.20;99.90;;;;;;5063523;28;20037;-78
2023/07/06 09:29:25;;;;;;;9.70;2.90;;;19.30;99.90;;;;;;5054857;28;20497;-76
2023/07/06 09:32:17;;;;;;;7.90;2.88;;;19.30;99.90;;;;;;5059291;28;20056;-76
2023/07/06 09:34:45;;;;;;;;;;;19.40;99.90;;;;;;5055309;28;20048;-76
2023/07/06 09:37:14;;;;;;;6.95;2.72;;;19.50;99.90;;;;;;5055363;28;19923;-76
2023/07/06 09:40:04;;;;;;;6.22;2.25;;;19.70;99.90;;;;;;5051151;28;20386;-76
2023/07/06 09:42:31;;;;;;;10.45;3.35;;;19.90;99.90;;;;;;5050226;28;20107;-76
2023/07/06 09:44:58;;;;;;;8.63;2.97;;;20.00;99.90;;;;;;5052372;28;20040;-76
2023/07/06 09:47:24;;;;;;;7.97;2.75;;;20.00;99.90;;;;;;5035247;28;20067;-76
2023/07/06 09:49:59;;;;;;;10.30;3.17;;;19.90;99.90;;;;;;5040506;28;20454;-76
2023/07/06 09:52:26;;;;;;;8.32;2.88;;;19.90;99.90;;;;;;5071398;28;20048;-76
2023/07/06 09:55:30;;;;;;;6.65;2.67;;;19.80;99.90;;;;;;5070418;28;20045;-77
2023/07/06 09:58:00;;;;;;;6.38;2.60;;;19.60;99.90;;;;;;5051235;28;20387;-76
2023/07/06 10:00:59;;;;;;;10.50;2.55;;;19.50;99.90;;;;;;5063536;28;20039;-76
2023/07/06 10:03:40;;;;;;;6.80;1.98;;;19.60;99.90;;;;;;5048716;28;20056;-76
2023/07/06 10:06:25;;;;;;;9.98;2.40;;;19.80;99.90;;;;;;5062869;28;20559;-76
2023/07/06 10:09:19;;;;;;;6.60;2.25;;;20.00;99.90;;;;;;5073689;28;20036;-76
2023/07/06 10:11:51;;;;;;;9.05;2.20;;;19.70;99.90;;;;;;5068569;28;20110;-79
2023/07/06 10:14:34;;;;;;;4.47;1.98;;;19.70;99.90;;;;;;5066673;28;20032;-76
2023/07/06 10:17:19;;;;;;;9.27;2.22;;;19.50;99.90;;;;;;5064032;28;20036;-76
2023/07/06 10:20:05;;;;;;;6.25;2.30;;;19.30;99.90;;;;;;5066106;28;20385;-76
2023/07/06 10:22:50;;;;;;;6.57;2.40;;;19.30;99.90;;;;;;5063088;28;20036;-76
2023/07/06 10:25:33;;;;;;;5.85;2.00;;;19.30;99.90;;;;;;5064161;28;20048;-76
2023/07/06 10:28:07;;;;;;;5.80;1.92;;;19.30;99.90;;;;;;5053101;28;20053;-76
2023/07/06 10:30:45;;;;;;;6.18;2.03;;;19.30;99.90;;;;;;5071519;28;20516;-76
2023/07/06 10:33:46;;;;;;;7.40;2.15;;;19.40;99.90;;;;;;5069367;28;20071;-76
2023/07/06 10:36:13;;;;;;;5.85;2.35;;;19.30;99.90;;;;;;5036047;28;20040;-76
2023/07/06 10:38:39;;;;;;;8.93;2.30;;;19.30;99.90;;;;;;5050020;28;20044;-76
2023/07/06 10:41:10;;;;;;;6.82;2.35;;;19.30;99.90;;;;;;5068451;28;20048;-76
2023/07/06 10:43:40;;;;;;;8.88;2.10;;;19.10;99.90;;;;;;5069540;28;20041;-76
2023/07/06 10:46:25;;;;;;;5.25;1.80;;;19.10;99.90;;;;;;5064872;28;20045;-76
2023/07/06 10:48:55;;;;;;;3.60;1.60;;;19.00;99.90;;;;;;5070911;28;20044;-76
2023/07/06 10:51:27;;;;;;;6.55;1.77;;;19.20;99.90;;;;;;5048707;28;20037;-76
2023/07/06 10:54:16;;;;;;;4.45;1.63;;;19.40;99.90;;;;;;5050531;28;20497;-76
2023/07/06 10:56:46;;;;;;;5.80;1.80;;;19.50;99.90;;;;;;5064463;28;20037;-76
2023/07/06 10:59:23;;;;;;;4.45;1.77;;;19.40;99.90;;;;;;5070751;28;20032;-76
2023/07/06 11:02:05;;;;;;;4.43;1.70;;;19.30;99.90;;;;;;5069829;28;20107;-76
2023/07/06 11:04:41;;;;;;;5.72;1.60;;;19.20;99.90;;;;;;5052337;28;20093;-78
2023/07/06 11:07:38;;;;;;;4.38;1.83;;;19.20;99.90;;;;;;5037038;28;20041;-79
2023/07/06 11:10:12;;;;;;;5.65;1.88;;;19.40;99.90;;;;;;5035082;28;20136;-79
2023/07/06 11:12:58;;;;;;;3.58;1.52;;;19.50;99.90;;;;;;5051008;28;20049;-76
2023/07/06 11:15:56;;;;;;;6.05;1.60;;;19.70;99.90;;;;;;5063295;28;20094;-78
2023/07/06 11:18:21;;;;;;;3.53;1.55;;;19.70;99.90;;;;;;5074814;28;20504;-78
2023/07/06 11:21:12;;;;;;;4.80;1.63;;;19.60;99.90;;;;;;5053127;28;20033;-79
2023/07/06 11:23:45;;;;;;;3.50;1.40;;;19.50;99.90;;;;;;5068339;28;20084;-78
2023/07/06 11:26:47;;;;;;;5.05;2.00;;;19.30;99.90;;;;;;5048862;28;20047;-78
2023/07/06 11:29:13;;;;;;;6.80;1.83;;;19.40;99.90;;;;;;5055142;28;20060;-78
2023/07/06 11:31:47;;;;;;;4.32;1.80;;;19.40;99.90;;;;;;5081608;28;20045;-78
2023/07/06 11:34:28;;;;;;;7.30;1.90;;;19.30;99.90;;;;;;5070376;28;20400;-78
2023/07/06 11:37:02;;;;;;;4.25;1.80;;;19.20;99.90;;;;;;5059074;28;20041;-78
2023/07/06 11:39:49;;;;;;;4.75;1.83;;;19.20;99.90;;;;;;5056776;28;20029;-78
2023/07/06 11:42:31;;;;;;;5.72;2.03;;;19.10;99.90;;;;;;5062942;28;20083;-78
2023/07/06 11:45:01;;;;;;;;;;;19.10;99.90;;;;;;5057311;28;20044;-78
2023/07/06 11:48:01;;;;;;;4.90;2.00;;;19.00;99.90;;;;;;5039906;28;19917;-79
2023/07/06 11:50:36;;;;;;;5.88;1.98;;;19.00;99.90;;;;;;5055499;28;20048;-78
2023/07/06 11:53:17;;;;;;;5.90;2.00;;;18.90;99.90;;;;;;5053094;28;20055;-78
2023/07/06 11:55:54;;;;;;;7.18;1.77;;;18.90;99.90;;;;;;5055998;28;20043;-79
2023/07/06 11:58:29;;;;;;;6.13;2.10;;;18.90;99.90;;;;;;5066094;28;20040;-79
2023/07/06 12:01:00;;;;;;;4.95;2.10;;;18.90;99.90;;;;;;5062377;28;20047;-78
2023/07/06 12:03:27;;;;;;;;;;;18.90;99.90;;;;;;5067781;28;20094;-78
2023/07/06 12:05:59;;;;;;;7.60;2.50;;;19.00;99.90;;;;;;5054035;28;19924;-78
2023/07/06 12:08:35;;;;;;;5.43;2.40;;;19.20;99.90;;;;;;5038597;28;20080;-79
2023/07/06 12:11:05;;;;;;;10.02;2.60;;;19.60;99.90;;;;;;5064169;28;20124;-80
2023/07/06 12:13:36;;;;;;;6.97;2.45;;;19.70;99.90;;;;;;5057621;28;20569;-79
2023/07/06 12:16:05;;;;;;;6.65;2.03;;;19.90;99.90;;;;;;5052478;28;20497;-78
2023/07/06 12:18:33;;;;;;;6.13;2.38;;;19.90;99.90;;;;;;5070662;28;20048;-79
2023/07/06 12:21:00;;;;;;;6.07;1.90;;;20.00;99.90;;;;;;5056830;28;20037;-75
2023/07/06 12:23:26;;;;;;;7.13;2.33;;;20.10;99.90;;;;;;5053242;28;20052;-75
2023/07/06 12:25:54;;;;;;;5.35;1.80;;;20.20;99.90;;;;;;5072785;28;20033;-75
2023/07/06 12:28:20;;;;;;;5.20;1.48;;;20.20;99.90;;;;;;5051156;28;20122;-74
2023/07/06 12:30:48;;;;;;;3.72;1.25;;;20.30;99.90;;;;;;5069535;28;20496;-75
2023/07/06 12:33:16;;;;;;;4.25;1.15;;;20.40;99.90;;;;;;5049585;28;20041;-75
2023/07/06 12:35:43;;;;;;;3.25;1.20;;;20.50;99.90;;;;;;5036376;28;20040;-75
2023/07/06 12:38:19;;;;;;;4.75;1.10;;;20.50;99.90;;;;;;5037200;28;20493;-75
2023/07/06 12:40:46;;;;;;;2.35;1.08;;;20.50;99.90;;;;;;5041670;28;20550;-75
2023/07/06 12:43:29;;;;;;;4.55;1.27;;;20.60;99.90;;;;;;5073566;28;20044;-75
2023/07/06 12:45:55;;;;;;;4.05;1.20;;;20.70;99.90;;;;;;5044093;28;20105;-74
2023/07/06 12:48:24;;;;;;;3.90;1.20;;;20.80;99.90;;;;;;5069468;28;20040;-81
2023/07/06 12:50:54;;;;;;;4.85;1.20;;;20.90;99.90;;;;;;5036738;28;20045;-77
2023/07/06 12:53:27;;;;;;;6.35;1.33;;;20.90;99.90;;;;;;5047429;28;20044;-78
2023/07/06 12:56:04;;;;;;;4.80;1.30;;;21.00;99.90;;;;;;5073216;28;20040;-78
2023/07/06 12:58:34;;;;;;;5.28;1.40;;;21.10;99.90;;;;;;5074415;28;20392;-77
2023/07/06 13:01:15;;;;;;;4.57;1.20;;;21.10;99.90;;;;;;5067396;28;20101;-77